This is the latest recevied weather packets stored in our database for station/object KM4CBK. If no packets are shown the sender has not sent any weather packets the latest 1 day(s).
| Time | Temp. | Humidity | Pressure | Rain* | Wind** | Luminosity | Snow |
|---|---|---|---|---|---|---|---|
| 1778030373 | 21.67° C | 77% | 1011.3 hPa | 0 mm | - | 0 W/m² | - |
| 1778029767 | 22.22° C | 75% | 1011.3 hPa | 0 mm | - | 0 W/m² | - |
| 1778029466 | 22.22° C | 74% | 1011.4 hPa | 0 mm | - | 0 W/m² | - |
| 1778029161 | 22.22° C | 73% | 1010.9 hPa | 0 mm | - | 0 W/m² | - |
| 1778028860 | 22.22° C | 74% | 1011.2 hPa | 0 mm | - | 0 W/m² | - |
| 1778028253 | 22.78° C | 71% | 1010.9 hPa | 0 mm | - | 0 W/m² | - |
| 1778027645 | 22.78° C | 71% | 1011 hPa | 0 mm | - | 0 W/m² | - |
| 1778027342 | 23.33° C | 70% | 1010.9 hPa | 0 mm | - | 0 W/m² | - |
| 1778027038 | 23.33° C | 70% | 1011.1 hPa | 0 mm | - | 0 W/m² | - |
| 1778026733 | 23.33° C | 70% | 1011.1 hPa | 0 mm | - | 2 W/m² | - |
| 1778025826 | 23.89° C | 66% | 1010.8 hPa | 0 mm | - | 9 W/m² | - |
| 1778023404 | 25.56° C | 60% | 1011 hPa | 0 mm | - | 34 W/m² | - |
| 1778022193 | 26.11° C | 61% | 1011.1 hPa | 0 mm | - | 91 W/m² | - |
| 1778019766 | 26.11° C | 59% | 1011.3 hPa | 0 mm | - | 97 W/m² | - |
| 1778018252 | 26.67° C | 55% | 1011.3 hPa | 0 mm | - | 138 W/m² | - |
| 1778017949 | 26.67° C | 56% | 1011.2 hPa | 0 mm | - | 110 W/m² | - |
| 1778017647 | 26.67° C | 55% | 1011.4 hPa | 0 mm | - | 91 W/m² | - |
| 1778015526 | 27.78° C | 52% | 1011.1 hPa | 0 mm | - | 256 W/m² | - |
| 1778015223 | 27.78° C | 52% | 1011 hPa | 0 mm | - | 232 W/m² | - |
| 1778014617 | 27.22° C | 51% | 1011.5 hPa | 0 mm | - | 194 W/m² | - |
| 1778014315 | 27.78° C | 48% | 1011.4 hPa | 0 mm | - | 153 W/m² | - |
| 1778013406 | 28.33° C | 49% | 1011.7 hPa | 0 mm | - | 455 W/m² | - |
| 1778010980 | 28.89° C | 45% | 1012 hPa | 0 mm | - | 467 W/m² | - |
* Rain latest hour (hover to see other rain measurements)
** Current wind speed in m/s (hover to see current wind gust speed)